Rechercher aéroport 
image banner adimage banner adimage banner ad
image banner ad

KHMZ - Bedford County

Situé à Bedford, United States

ICAO - HMZ, IATA -

Données fournies par Airmate  

Information générale

Coordonnées: N40°5'10" W78°30'49"
Élévation : 1162 feet MSL.
Variation magnétique : -09° East
Voir autres Aéroports à Pennsylvania

Données opérationnelles

Special qualification required
Heure actuelle UTC:
Heure actuelle locale:
Météo
METAR: KHMZ 132055Z AUTO 17006G09KT 10SM CLR 24/18 A2985 RMK AO2 60002 T02370183
Voir NOTAMs / SUP AIP / TFR affectant cet aéroport [VIEW]
Fréquences de communication: [VIEW]

Pistes:

Identifiant RWYQFULongueur (ft)Largeur (ft)SurfaceLDA (ft)
14127°500575ASPH
32307°500575ASPH

Coordonnées de l'aéroport

Adresse: Bedford United States

Autres services d'aviation

Écoles de pilotage

Bun Air Corporation

Bun Air Corporation
mail@bunaircorp.com+1(814)623-8171

Vue satellite de KHMZ